Time;durP1;ratioP1;P1;durP2;ratioP2;P2;SDS_P1;SDS_P2;PMS_P1;PMS_P2;Temp;Humidity;BMP_temperature;BMP_pressure;BME280_temperature;BME280_humidity;BME280_pressure;Samples;Min_cycle;Max_cycle;Signal;HPM_P1;HPM_P2
2024/03/10 00:01:18;;;;;;;45.72;22.23;;;;;;;5.31;100.00;99411.78;5207794;28;20035;-72
2024/03/10 00:03:48;;;;;;;44.47;21.63;;;;;;;5.27;100.00;99412.78;5204585;28;20074;-72
2024/03/10 00:06:20;;;;;;;45.78;23.52;;;;;;;5.29;100.00;99415.34;5209237;28;20029;-72
2024/03/10 00:08:50;;;;;;;50.08;24.42;;;;;;;5.25;100.00;99414.59;5205251;28;20121;-71
2024/03/10 00:11:21;;;;;;;42.53;21.42;;;;;;;5.21;100.00;99425.97;5206832;28;20117;-71
2024/03/10 00:13:51;;;;;;;43.55;23.10;;;;;;;5.30;100.00;99417.03;5203008;28;20124;-73
2024/03/10 00:16:22;;;;;;;46.35;23.35;;;;;;;5.29;100.00;99423.13;5201468;28;20029;-72
2024/03/10 00:18:52;;;;;;;44.80;22.73;;;;;;;5.48;100.00;99430.22;5191650;28;20024;-73
2024/03/10 00:21:23;;;;;;;42.60;20.27;;;;;;;5.22;97.37;99424.19;5200928;28;20145;-72
2024/03/10 00:23:53;;;;;;;41.75;20.92;;;;;;;5.19;99.94;99419.94;5204227;28;20475;-70
2024/03/10 00:26:24;;;;;;;38.65;19.73;;;;;;;5.07;97.84;99422.09;5201769;28;20402;-70
2024/03/10 00:28:54;;;;;;;38.85;19.38;;;;;;;4.86;98.23;99426.22;5200453;28;20032;-72
2024/03/10 00:31:24;;;;;;;41.72;21.77;;;;;;;5.00;100.00;99429.22;5201101;28;20094;-72
2024/03/10 00:33:55;;;;;;;39.67;21.08;;;;;;;4.91;100.00;99419.16;5203728;28;20034;-72
2024/03/10 00:36:25;;;;;;;42.53;21.10;;;;;;;4.94;100.00;99431.16;5202513;28;20049;-70
2024/03/10 00:38:55;;;;;;;45.15;23.08;;;;;;;5.00;100.00;99429.22;5198356;28;20214;-72
2024/03/10 00:41:25;;;;;;;46.08;22.83;;;;;;;5.05;100.00;99421.31;5197345;28;20045;-72
2024/03/10 00:43:56;;;;;;;42.72;21.52;;;;;;;5.10;100.00;99424.59;5200386;28;20044;-72
2024/03/10 00:46:26;;;;;;;42.90;21.92;;;;;;;5.12;100.00;99421.06;5198572;28;20027;-71
2024/03/10 00:48:56;;;;;;;47.42;22.95;;;;;;;5.21;100.00;99422.50;5192734;28;20120;-72
2024/03/10 00:51:27;;;;;;;42.67;22.02;;;;;;;5.27;100.00;99414.53;5195697;28;20029;-73
2024/03/10 00:53:57;;;;;;;40.58;21.77;;;;;;;5.20;99.79;99411.31;5201254;28;20110;-72
2024/03/10 00:56:27;;;;;;;44.58;22.33;;;;;;;5.14;100.00;99413.25;5199851;28;20025;-72
2024/03/10 00:58:58;;;;;;;48.60;23.38;;;;;;;5.17;100.00;99410.56;5202887;28;20337;-72
2024/03/10 01:01:29;;;;;;;49.20;24.52;;;;;;;5.18;100.00;99410.50;5197223;28;20422;-72
2024/03/10 01:03:59;;;;;;;49.40;23.63;;;;;;;5.26;100.00;99399.88;5196657;28;20034;-72
2024/03/10 01:06:29;;;;;;;45.47;23.77;;;;;;;5.28;100.00;99396.34;5191157;28;20030;-72
2024/03/10 01:08:59;;;;;;;50.28;24.15;;;;;;;5.18;99.35;99394.97;5197239;28;20463;-72
2024/03/10 01:11:30;;;;;;;51.05;24.65;;;;;;;5.24;99.60;99396.50;5198773;28;20046;-73
2024/03/10 01:14:00;;;;;;;43.67;22.13;;;;;;;5.43;98.36;99381.13;5200333;28;20192;-72
2024/03/10 01:16:32;;;;;;;49.58;24.08;;;;;;;5.35;98.31;99390.06;5197336;28;20479;-72
2024/03/10 01:19:02;;;;;;;42.28;21.50;;;;;;;5.38;98.77;99374.44;5199544;28;20026;-72
2024/03/10 01:21:32;;;;;;;46.42;23.60;;;;;;;5.28;98.63;99382.53;5196637;28;20529;-72
2024/03/10 01:24:04;;;;;;;55.08;24.38;;;;;;;5.26;99.58;99374.00;5192321;28;20117;-72
2024/03/10 01:26:34;;;;;;;53.88;24.20;;;;;;;5.31;98.92;99379.88;5190708;28;20395;-70
2024/03/10 01:29:04;;;;;;;49.10;25.05;;;;;;;5.29;100.00;99376.50;5191176;28;20041;-69
2024/03/10 01:31:35;;;;;;;49.90;24.85;;;;;;;5.28;100.00;99378.22;5199339;28;20033;-72
2024/03/10 01:34:05;;;;;;;50.38;24.60;;;;;;;5.21;100.00;99381.94;5198538;28;20029;-69
2024/03/10 01:36:35;;;;;;;51.88;25.70;;;;;;;5.26;100.00;99382.63;5201330;28;20112;-72
2024/03/10 01:39:08;;;;;;;57.75;27.30;;;;;;;5.04;100.00;99376.47;5198275;28;20021;-70
2024/03/10 01:41:38;;;;;;;56.80;27.05;;;;;;;5.01;100.00;99379.13;5201905;28;20029;-70
2024/03/10 01:44:09;;;;;;;56.45;27.67;;;;;;;5.18;100.00;99381.19;5191838;28;20131;-72
2024/03/10 01:46:40;;;;;;;54.72;26.55;;;;;;;5.04;100.00;99373.88;5197364;28;20037;-69
2024/03/10 01:49:11;;;;;;;63.42;28.55;;;;;;;5.01;100.00;99378.28;5191579;28;20846;-72
2024/03/10 01:51:42;;;;;;;58.90;27.55;;;;;;;5.03;100.00;99371.31;5191161;28;20018;-71
2024/03/10 01:54:13;;;;;;;54.40;26.73;;;;;;;5.02;100.00;99370.50;5195526;28;20042;-72
2024/03/10 01:56:44;;;;;;;62.28;27.52;;;;;;;5.03;100.00;99372.19;5202106;28;20518;-72
2024/03/10 01:59:14;;;;;;;61.22;28.77;;;;;;;4.95;100.00;99375.91;5198842;28;20050;-72
2024/03/10 02:01:46;;;;;;;57.67;27.50;;;;;;;5.18;100.00;99376.00;5197013;28;20045;-72
2024/03/10 02:04:17;;;;;;;55.95;26.92;;;;;;;5.08;100.00;99372.88;5199697;28;20052;-70
2024/03/10 02:06:49;;;;;;;57.47;27.38;;;;;;;5.13;100.00;99368.38;5192741;28;20064;-72
2024/03/10 02:09:21;;;;;;;56.38;27.80;;;;;;;5.07;100.00;99378.94;5194260;28;20048;-72
2024/03/10 02:11:51;;;;;;;59.88;28.35;;;;;;;5.09;100.00;99382.31;5198598;28;20037;-73
2024/03/10 02:14:21;;;;;;;49.47;24.17;;;;;;;5.12;100.00;99382.22;5202750;28;20094;-72
2024/03/10 02:16:53;;;;;;;45.03;22.30;;;;;;;5.17;98.29;99390.69;5200196;28;20040;-70
2024/03/10 02:19:24;;;;;;;43.60;22.00;;;;;;;4.98;97.33;99391.34;5200369;28;20047;-72
2024/03/10 02:21:58;;;;;;;39.95;20.17;;;;;;;4.81;94.77;99383.28;5195209;28;20063;-72
2024/03/10 02:24:33;;;;;;;42.28;20.67;;;;;;;4.55;96.83;99384.06;5189824;28;20068;-73
2024/03/10 02:27:04;;;;;;;44.00;23.58;;;;;;;4.56;99.30;99380.59;5194604;28;20112;-73
2024/03/10 02:29:49;;;;;;;52.95;24.95;;;;;;;4.58;100.00;99378.81;5198218;28;20112;-71
2024/03/10 02:49:16;;;;;;;40.97;20.33;;;;;;;3.94;98.57;99385.91;5198440;28;20399;-71
2024/03/10 02:51:46;;;;;;;44.38;21.85;;;;;;;3.85;99.21;99384.44;5198940;28;20104;-70
2024/03/10 02:54:16;;;;;;;44.08;22.67;;;;;;;3.92;100.00;99388.53;5196782;28;20049;-72
2024/03/10 02:56:48;;;;;;;46.45;23.17;;;;;;;3.78;100.00;99389.81;5190392;28;20497;-71
2024/03/10 02:59:18;;;;;;;46.63;22.35;;;;;;;3.84;100.00;99392.22;5196585;28;20044;-69
2024/03/10 03:01:48;;;;;;;45.42;23.52;;;;;;;3.70;100.00;99389.16;5200082;28;20033;-72
2024/03/10 03:04:19;;;;;;;47.15;22.92;;;;;;;3.82;100.00;99389.66;5195019;28;20120;-71
2024/03/10 03:06:49;;;;;;;46.17;22.55;;;;;;;3.86;100.00;99393.03;5202284;28;20218;-72
2024/03/10 03:09:20;;;;;;;39.92;20.70;;;;;;;3.94;99.82;99393.66;5198415;28;20029;-71
2024/03/10 03:11:50;;;;;;;39.88;20.55;;;;;;;3.71;98.73;99399.47;5201547;28;20064;-70
2024/03/10 03:14:20;;;;;;;44.22;22.02;;;;;;;3.73;99.98;99392.53;5192011;28;20080;-72
2024/03/10 03:16:51;;;;;;;49.88;24.50;;;;;;;3.76;100.00;99392.44;5194559;28;20123;-71
2024/03/10 03:19:21;;;;;;;54.90;24.95;;;;;;;3.82;100.00;99389.66;5200214;28;20482;-72
2024/03/10 03:21:51;;;;;;;51.15;24.23;;;;;;;3.82;100.00;99384.50;5197284;28;20029;-72
2024/03/10 03:24:22;;;;;;;52.42;25.58;;;;;;;3.72;100.00;99388.25;5196819;28;20662;-72
2024/03/10 03:26:56;;;;;;;48.40;24.13;;;;;;;3.80;100.00;99390.63;5199666;28;20053;-72
2024/03/10 03:29:27;;;;;;;52.20;24.48;;;;;;;3.76;100.00;99382.09;5197243;28;20025;-72
2024/03/10 03:31:58;;;;;;;51.97;25.38;;;;;;;3.90;100.00;99382.56;5202002;28;20176;-71
2024/03/10 03:34:29;;;;;;;50.53;24.05;;;;;;;3.94;100.00;99380.75;5202080;28;20104;-72
2024/03/10 03:36:59;;;;;;;59.75;28.60;;;;;;;4.06;100.00;99378.66;5201203;28;20032;-71
2024/03/10 03:39:29;;;;;;;59.22;27.30;;;;;;;4.15;100.00;99367.22;5203674;28;20113;-72
2024/03/10 03:41:59;;;;;;;55.70;27.35;;;;;;;4.14;100.00;99376.69;5200680;28;20120;-72
2024/03/10 03:44:30;;;;;;;60.67;28.65;;;;;;;4.15;100.00;99368.03;5193969;28;20069;-71
2024/03/10 03:47:00;;;;;;;59.63;27.83;;;;;;;4.08;100.00;99370.84;5195526;28;20033;-72
2024/03/10 03:49:31;;;;;;;60.08;28.83;;;;;;;4.10;100.00;99380.25;5201985;28;20029;-69
2024/03/10 03:52:02;;;;;;;57.40;28.50;;;;;;;4.11;100.00;99376.78;5202202;28;20516;-73
2024/03/10 03:54:32;;;;;;;58.78;28.65;;;;;;;4.08;100.00;99370.84;5203644;28;20104;-73
2024/03/10 03:57:03;;;;;;;58.92;28.05;;;;;;;4.14;100.00;99373.28;5206158;28;20029;-74
2024/03/10 03:59:33;;;;;;;56.28;26.65;;;;;;;4.04;100.00;99372.69;5202810;28;20025;-72
2024/03/10 04:02:04;;;;;;;56.95;27.65;;;;;;;3.92;100.00;99375.63;5201197;28;20029;-73
2024/03/10 04:04:34;;;;;;;57.00;26.95;;;;;;;4.01;100.00;99374.50;5199261;28;20021;-72
2024/03/10 04:07:04;;;;;;;61.47;27.80;;;;;;;3.87;100.00;99374.03;5203841;28;20056;-74
2024/03/10 04:09:35;;;;;;;60.17;27.20;;;;;;;3.92;100.00;99375.63;5203477;28;20017;-73
2024/03/10 04:12:05;;;;;;;56.75;28.48;;;;;;;3.98;100.00;99372.84;5203289;28;20364;-72
2024/03/10 04:14:36;;;;;;;58.40;27.83;;;;;;;3.88;100.00;99368.84;5202676;28;20103;-73
2024/03/10 04:17:07;;;;;;;54.63;27.52;;;;;;;3.92;100.00;99362.69;5199573;28;20033;-70
2024/03/10 04:19:37;;;;;;;59.15;28.90;;;;;;;3.96;100.00;99360.88;5200039;28;20036;-73
2024/03/10 04:22:09;;;;;;;57.45;27.67;;;;;;;3.99;100.00;99353.03;5199956;28;20515;-73
2024/03/10 04:24:39;;;;;;;61.08;28.85;;;;;;;3.81;100.00;99356.13;5202438;28;20029;-72
2024/03/10 04:27:10;;;;;;;57.80;28.48;;;;;;;3.91;100.00;99349.81;5201854;28;20041;-73
2024/03/10 04:29:41;;;;;;;58.63;28.40;;;;;;;4.00;100.00;99353.00;5201457;28;20527;-73
2024/03/10 04:32:12;;;;;;;66.80;30.70;;;;;;;4.01;100.00;99344.34;5200262;28;20116;-72
2024/03/10 04:34:46;;;;;;;58.22;28.35;;;;;;;4.04;100.00;99358.91;5200985;28;20537;-73
2024/03/10 04:37:17;;;;;;;63.63;29.27;;;;;;;4.07;100.00;99340.72;5202622;28;20044;-74
2024/03/10 04:39:48;;;;;;;58.03;28.83;;;;;;;4.09;100.00;99344.97;5202580;28;20033;-74
2024/03/10 04:42:19;;;;;;;60.22;29.02;;;;;;;4.03;100.00;99342.56;5197492;28;20021;-73
2024/03/10 04:44:49;;;;;;;60.28;28.75;;;;;;;4.09;100.00;99341.56;5201731;28;20095;-74
2024/03/10 04:47:20;;;;;;;62.72;29.17;;;;;;;4.02;100.00;99332.25;5201490;28;20031;-71
2024/03/10 04:49:50;;;;;;;58.03;28.27;;;;;;;4.04;100.00;99333.91;5198604;28;20678;-74
2024/03/10 04:52:21;;;;;;;62.22;27.83;;;;;;;4.13;100.00;99328.47;5198279;28;20029;-73
2024/03/10 04:54:52;;;;;;;59.80;28.65;;;;;;;4.08;100.00;99325.19;5195279;28;20031;-73
2024/03/10 04:57:24;;;;;;;58.92;28.75;;;;;;;4.20;100.00;99339.47;5197042;28;20475;-73
2024/03/10 04:59:57;;;;;;;60.00;29.95;;;;;;;4.11;100.00;99322.50;5201094;28;20064;-73
2024/03/10 05:02:30;;;;;;;58.08;28.65;;;;;;;4.18;100.00;99316.28;5200769;28;20371;-73
2024/03/10 05:05:04;;;;;;;62.60;29.50;;;;;;;4.13;100.00;99318.13;5199611;28;20822;-73
2024/03/10 05:07:36;;;;;;;57.20;28.70;;;;;;;4.05;100.00;99311.50;5199472;28;20024;-73
2024/03/10 05:10:07;;;;;;;60.90;29.48;;;;;;;3.98;100.00;99305.66;5197643;28;20321;-72
2024/03/10 05:12:38;;;;;;;62.53;29.17;;;;;;;4.14;100.00;99301.72;5194896;28;20063;-74
2024/03/10 05:15:09;;;;;;;60.28;29.50;;;;;;;4.21;100.00;99295.50;5198073;28;20022;-74
2024/03/10 05:17:39;;;;;;;62.50;29.90;;;;;;;4.24;100.00;99297.97;5215973;28;20036;-74
2024/03/10 05:20:11;;;;;;;65.90;30.58;;;;;;;4.09;100.00;99297.63;5198983;28;20033;-74
2024/03/10 05:22:41;;;;;;;65.03;29.65;;;;;;;4.18;100.00;99303.34;5201175;28;20653;-74
2024/03/10 05:25:12;;;;;;;58.63;29.10;;;;;;;4.22;100.00;99310.09;5201360;28;20022;-74
2024/03/10 05:27:42;;;;;;;62.53;29.63;;;;;;;4.21;100.00;99317.91;5193264;28;20344;-73
2024/03/10 05:30:13;;;;;;;62.85;30.10;;;;;;;4.22;100.00;99311.84;5198043;28;20048;-74
2024/03/10 05:32:44;;;;;;;64.20;30.42;;;;;;;4.26;100.00;99319.47;5200845;28;20391;-74
2024/03/10 05:35:14;;;;;;;62.97;29.60;;;;;;;4.13;100.00;99318.13;5195630;28;20026;-70
2024/03/10 05:37:44;;;;;;;62.65;30.45;;;;;;;4.07;100.00;99312.28;5203209;28;20037;-73
2024/03/10 05:40:15;;;;;;;67.53;30.60;;;;;;;4.22;100.00;99312.69;5199483;28;20082;-71
2024/03/10 05:42:45;;;;;;;60.95;29.88;;;;;;;4.16;100.00;99318.03;5197738;28;20033;-73
2024/03/10 05:45:18;;;;;;;67.80;31.10;;;;;;;3.83;100.00;99313.88;5197684;28;20029;-73
2024/03/10 05:47:48;;;;;;;68.35;31.23;;;;;;;3.75;100.00;99320.16;5200118;28;20025;-71
2024/03/10 05:50:20;;;;;;;72.90;31.98;;;;;;;3.89;100.00;99313.69;5200758;28;20089;-74
2024/03/10 05:52:51;;;;;;;71.25;31.00;;;;;;;3.94;100.00;99301.47;5197902;28;20035;-74
2024/03/10 05:55:21;;;;;;;68.65;32.20;;;;;;;3.95;100.00;99302.34;5198818;28;20048;-72
2024/03/10 05:57:52;;;;;;;64.65;31.75;;;;;;;3.96;100.00;99294.53;5199639;28;20036;-73
2024/03/10 06:00:22;;;;;;;58.10;29.67;;;;;;;3.95;100.00;99298.00;5193420;28;20288;-72
2024/03/10 06:02:52;;;;;;;61.97;29.77;;;;;;;4.07;100.00;99297.66;5195110;28;20562;-74
2024/03/10 06:05:22;;;;;;;66.50;31.20;;;;;;;3.98;100.00;99299.66;5199488;28;20033;-72
2024/03/10 06:07:53;;;;;;;63.85;30.13;;;;;;;4.15;100.00;99306.00;5202494;28;20415;-73
2024/03/10 06:10:23;;;;;;;61.03;30.23;;;;;;;4.24;100.00;99310.03;5201894;28;20029;-73
2024/03/10 06:12:53;;;;;;;64.00;31.40;;;;;;;4.32;100.00;99297.75;5202211;28;20021;-74
2024/03/10 06:15:23;;;;;;;57.15;28.58;;;;;;;4.39;100.00;99307.00;5201157;28;20357;-74
2024/03/10 06:26:34;;;;;;;56.03;27.83;;;;;;;4.64;100.00;99306.16;5199052;28;20548;-73
2024/03/10 06:29:05;;;;;;;49.92;26.27;;;;;;;4.66;100.00;99304.38;5201275;28;20029;-70
2024/03/10 06:31:37;;;;;;;54.60;27.25;;;;;;;4.55;100.00;99303.03;5199473;28;20032;-73
2024/03/10 06:34:07;;;;;;;56.05;26.60;;;;;;;4.63;100.00;99309.66;5192995;28;20031;-74
2024/03/10 06:36:38;;;;;;;55.83;27.90;;;;;;;4.70;100.00;99307.72;5199132;28;20411;-74
2024/03/10 06:39:09;;;;;;;53.63;27.02;;;;;;;5.02;100.00;99307.50;5198846;28;20029;-74
2024/03/10 06:41:39;;;;;;;50.75;25.90;;;;;;;4.92;100.00;99312.16;5201897;28;20031;-74
2024/03/10 06:44:09;;;;;;;50.20;25.55;;;;;;;4.91;100.00;99304.41;5201085;28;20030;-74
2024/03/10 06:46:42;;;;;;;50.67;25.98;;;;;;;4.94;100.00;99302.59;5206146;28;20567;-74
2024/03/10 06:49:13;;;;;;;50.47;26.30;;;;;;;4.98;100.00;99314.53;5196375;28;20026;-73
2024/03/10 06:51:44;;;;;;;52.33;26.95;;;;;;;5.15;100.00;99309.63;5187934;28;20045;-74
2024/03/10 06:54:15;;;;;;;49.92;25.30;;;;;;;5.13;100.00;99311.41;5185163;28;20025;-74
2024/03/10 06:56:45;;;;;;;53.50;27.75;;;;;;;5.12;100.00;99304.56;5184604;28;20030;-73
2024/03/10 06:59:16;;;;;;;51.05;26.25;;;;;;;5.25;100.00;99303.25;5185995;28;20061;-72
2024/03/10 07:01:47;;;;;;;48.17;25.67;;;;;;;5.22;100.00;99299.91;5186733;28;20029;-73
2024/03/10 07:04:17;;;;;;;49.20;24.95;;;;;;;5.28;100.00;99294.50;5187773;28;20037;-71
2024/03/10 07:06:49;;;;;;;48.45;24.63;;;;;;;5.70;100.00;99291.22;5188832;28;20029;-74
2024/03/10 07:09:23;;;;;;;52.40;26.02;;;;;;;5.76;100.00;99293.59;5182471;28;20437;-71
2024/03/10 07:11:53;;;;;;;48.03;24.38;;;;;;;5.67;100.00;99293.94;5188909;28;20033;-74
2024/03/10 07:14:24;;;;;;;46.42;24.35;;;;;;;5.61;100.00;99295.00;5184880;28;20095;-73
2024/03/10 07:16:55;;;;;;;50.05;25.05;;;;;;;5.78;100.00;99287.47;5191871;28;20025;-74
2024/03/10 07:19:25;;;;;;;48.05;25.55;;;;;;;5.68;100.00;99280.06;5189155;28;20028;-74
2024/03/10 07:21:55;;;;;;;48.72;25.23;;;;;;;5.81;100.00;99281.34;5189932;28;20033;-74
2024/03/10 07:24:25;;;;;;;51.28;25.33;;;;;;;6.00;100.00;99278.03;5179274;28;20052;-70
2024/03/10 07:26:56;;;;;;;48.13;24.85;;;;;;;6.23;100.00;99279.75;5180196;28;20038;-73
2024/03/10 07:29:26;;;;;;;52.22;25.55;;;;;;;6.45;100.00;99277.97;5188084;28;20090;-72
2024/03/10 07:31:56;;;;;;;44.22;22.67;;;;;;;6.64;100.00;99291.91;5194154;28;20044;-73
2024/03/10 07:34:28;;;;;;;46.58;22.73;;;;;;;6.90;100.00;99278.72;5199483;28;20100;-74
2024/03/10 07:37:00;;;;;;;41.13;22.00;;;;;;;6.96;99.54;99283.66;5199490;28;20052;-73
2024/03/10 07:39:30;;;;;;;41.28;22.08;;;;;;;7.11;98.25;99289.03;5198366;28;20817;-74
2024/03/10 07:42:01;;;;;;;41.63;22.83;;;;;;;6.91;99.12;99285.59;5201807;28;20033;-73
2024/03/10 07:44:31;;;;;;;42.55;22.13;;;;;;;6.86;99.79;99288.38;5199769;28;20410;-74
2024/03/10 07:47:02;;;;;;;42.00;22.85;;;;;;;6.94;99.83;99293.25;5203558;28;20025;-74
2024/03/10 07:49:33;;;;;;;44.17;22.15;;;;;;;7.03;98.97;99282.47;5199623;28;20029;-74
2024/03/10 07:52:04;;;;;;;46.63;22.15;;;;;;;6.97;98.56;99288.75;5203061;28;20586;-74
2024/03/10 07:54:35;;;;;;;41.30;23.23;;;;;;;7.09;98.84;99290.03;5202579;28;20043;-73
2024/03/10 07:57:05;;;;;;;38.63;21.30;;;;;;;7.01;99.25;99290.34;5201586;28;20021;-73
2024/03/10 07:59:36;;;;;;;43.05;21.98;;;;;;;7.09;99.24;99301.25;5203669;28;20034;-73
2024/03/10 08:02:06;;;;;;;37.53;20.65;;;;;;;7.49;96.59;99296.06;5200735;28;20502;-73
2024/03/10 08:04:37;;;;;;;37.80;21.13;;;;;;;7.24;97.58;99299.78;5194170;28;20044;-73
2024/03/10 08:07:07;;;;;;;42.00;21.98;;;;;;;7.25;99.21;99306.66;5195488;28;20030;-73
2024/03/10 08:09:38;;;;;;;44.15;21.80;;;;;;;7.32;97.81;99309.75;5196101;28;20030;-73
2024/03/10 08:12:08;;;;;;;38.83;20.55;;;;;;;7.14;99.52;99309.69;5198668;28;20383;-73
2024/03/10 08:14:38;;;;;;;40.42;22.13;;;;;;;7.04;99.49;99305.78;5199443;28;20040;-74
2024/03/10 08:17:09;;;;;;;38.47;21.17;;;;;;;7.28;99.58;99309.94;5198985;28;20030;-74
2024/03/10 08:19:42;;;;;;;39.35;21.83;;;;;;;7.31;97.79;99313.28;5202479;28;20022;-73
2024/03/10 08:22:12;;;;;;;40.03;21.48;;;;;;;7.57;97.05;99309.53;5206937;28;20040;-74
2024/03/10 08:24:45;;;;;;;40.50;21.55;;;;;;;7.60;96.41;99309.41;5203526;28;20636;-73
2024/03/10 08:27:16;;;;;;;37.90;21.20;;;;;;;7.71;95.83;99300.22;5204826;28;20068;-70
2024/03/10 08:29:47;;;;;;;35.63;20.63;;;;;;;7.88;94.93;99308.09;5205172;28;20021;-73
2024/03/10 08:32:19;;;;;;;37.70;20.63;;;;;;;8.06;94.58;99309.06;5196683;28;20089;-72
2024/03/10 08:34:50;;;;;;;34.75;20.23;;;;;;;8.27;92.40;99306.34;5198636;28;20027;-74
2024/03/10 08:37:20;;;;;;;34.78;20.20;;;;;;;8.11;93.21;99318.34;5202059;28;20040;-70
2024/03/10 08:39:51;;;;;;;37.63;20.83;;;;;;;8.46;93.47;99324.53;5200054;28;20025;-74
2024/03/10 08:42:24;;;;;;;37.28;19.50;;;;;;;8.76;89.89;99317.88;5199566;28;20036;-72
2024/03/10 08:44:54;;;;;;;34.30;20.30;;;;;;;8.87;90.55;99324.25;5203071;28;20449;-73
2024/03/10 08:47:25;;;;;;;33.83;19.15;;;;;;;9.09;90.01;99322.25;5201711;28;20021;-72
2024/03/10 08:49:55;;;;;;;31.73;19.20;;;;;;;9.10;87.65;99323.13;5206022;28;20056;-74
2024/03/10 08:52:25;;;;;;;36.65;19.70;;;;;;;9.12;89.16;99326.50;5207377;28;20033;-74
2024/03/10 08:54:56;;;;;;;33.17;19.08;;;;;;;9.34;87.38;99326.19;5193795;28;20429;-74
2024/03/10 08:57:27;;;;;;;31.90;18.63;;;;;;;9.58;88.18;99329.31;5206823;28;20025;-74
2024/03/10 08:59:57;;;;;;;33.30;19.42;;;;;;;9.38;87.59;99332.09;5194142;28;20039;-74
2024/03/10 09:02:29;;;;;;;33.22;18.38;;;;;;;9.48;87.94;99343.75;5204436;28;20048;-73
2024/03/10 09:04:59;;;;;;;30.45;18.17;;;;;;;9.33;87.87;99332.31;5207423;28;20029;-74
2024/03/10 09:07:31;;;;;;;31.55;18.80;;;;;;;9.35;87.58;99324.44;5203469;28;20024;-74
2024/03/10 09:10:02;;;;;;;32.80;18.35;;;;;;;9.41;88.27;99318.88;5207594;28;20034;-73
2024/03/10 09:12:32;;;;;;;32.08;18.25;;;;;;;9.49;88.67;99321.97;5209560;28;20509;-74
2024/03/10 09:15:05;;;;;;;32.10;18.33;;;;;;;9.19;88.89;99311.34;5206686;28;20037;-73
2024/03/10 09:17:38;;;;;;;31.30;17.20;;;;;;;9.30;87.41;99308.19;5205898;28;20028;-73
2024/03/10 09:20:11;;;;;;;33.15;18.70;;;;;;;9.19;89.55;99310.47;5203541;28;20021;-74
2024/03/10 09:22:43;;;;;;;31.45;18.42;;;;;;;9.27;89.39;99310.91;5207077;28;20435;-74
2024/03/10 09:25:22;;;;;;;31.92;18.77;;;;;;;9.20;89.66;99313.00;5205577;28;20476;-73
2024/03/10 09:27:53;;;;;;;32.55;18.40;;;;;;;9.32;88.28;99303.72;5206660;28;20367;-74
2024/03/10 09:30:24;;;;;;;31.20;17.75;;;;;;;9.23;89.29;99304.19;5206555;28;20226;-74
2024/03/10 09:32:54;;;;;;;29.98;18.38;;;;;;;9.33;89.20;99293.22;5206199;28;20033;-73
2024/03/10 09:35:28;;;;;;;32.95;18.95;;;;;;;9.35;89.45;99293.97;5207579;28;20243;-71
2024/03/10 09:38:04;;;;;;;30.88;17.92;;;;;;;9.40;89.18;99283.31;5197285;28;20060;-74
2024/03/10 09:40:34;;;;;;;33.22;18.13;;;;;;;9.48;89.88;99294.19;5200827;28;20032;-72
2024/03/10 09:43:06;;;;;;;31.75;18.10;;;;;;;9.30;90.08;99288.16;5203357;28;20025;-74
2024/03/10 09:45:43;;;;;;;33.03;19.05;;;;;;;9.39;90.10;99290.31;5203630;28;20032;-73
2024/03/10 09:48:17;;;;;;;31.40;18.33;;;;;;;9.45;90.06;99289.97;5206626;28;20073;-74
2024/03/10 09:50:49;;;;;;;34.78;17.52;;;;;;;9.84;88.40;99287.06;5227783;23;20056;-74
2024/03/10 09:53:20;;;;;;;30.70;18.40;;;;;;;9.80;88.12;99275.13;5207277;28;20505;-74
2024/03/10 09:55:53;;;;;;;32.88;18.75;;;;;;;9.34;90.12;99262.78;5203940;28;20225;-74
2024/03/10 09:58:34;;;;;;;32.30;18.80;;;;;;;9.52;90.17;99261.81;5202995;28;20426;-74
2024/03/10 10:01:11;;;;;;;30.13;17.75;;;;;;;9.75;90.77;99264.06;5197371;28;20037;-74
2024/03/10 10:03:49;;;;;;;34.90;19.08;;;;;;;9.52;89.96;99257.44;5185136;28;20029;-74
2024/03/10 10:06:21;;;;;;;32.72;18.20;;;;;;;9.63;90.18;99246.47;5187820;28;20082;-74
2024/03/10 10:08:55;;;;;;;35.25;19.23;;;;;;;9.44;90.49;99245.72;5185651;28;20040;-74
2024/03/10 10:11:25;;;;;;;32.22;19.13;;;;;;;9.63;90.71;99241.25;5182168;28;20041;-74
2024/03/10 10:14:09;;;;;;;35.85;19.73;;;;;;;9.50;90.12;99245.41;5189359;28;20369;-74
2024/03/10 10:16:50;;;;;;;36.20;18.63;;;;;;;9.53;91.02;99240.91;5181718;28;20032;-74
2024/03/10 10:19:21;;;;;;;34.65;18.77;;;;;;;9.27;91.58;99233.56;5181603;28;20033;-74
2024/03/10 10:21:52;;;;;;;34.03;19.15;;;;;;;9.18;92.21;99235.81;5181671;28;20475;-74
2024/03/10 10:24:22;;;;;;;34.22;19.75;;;;;;;9.27;93.01;99230.97;5183483;28;20033;-74
2024/03/10 10:27:02;;;;;;;35.20;19.15;;;;;;;9.19;93.43;99230.53;5185202;28;20061;-74
2024/03/10 10:29:49;;;;;;;32.13;18.63;;;;;;;9.32;93.08;99223.75;5186025;28;20128;-75
2024/03/10 10:32:24;;;;;;;36.20;19.83;;;;;;;9.51;92.04;99223.63;5188075;28;20490;-74
2024/03/10 10:34:56;;;;;;;32.38;18.58;;;;;;;9.48;92.04;99227.22;5184169;28;20642;-74
2024/03/10 10:37:34;;;;;;;33.80;19.38;;;;;;;9.57;92.14;99228.50;5176692;28;20030;-74
2024/03/10 10:40:11;;;;;;;34.72;19.15;;;;;;;9.57;91.18;99229.38;5180720;28;20296;-74
2024/03/10 10:42:41;;;;;;;34.00;18.63;;;;;;;9.95;92.03;99227.28;5187394;28;20056;-74
2024/03/10 10:45:16;;;;;;;30.63;18.35;;;;;;;10.24;88.96;99229.19;5185009;28;20034;-74
2024/03/10 10:47:46;;;;;;;31.10;17.92;;;;;;;10.43;87.36;99220.25;5188780;28;20026;-74
2024/03/10 10:50:24;;;;;;;31.00;18.20;;;;;;;10.49;88.19;99219.06;5191225;28;20056;-74
2024/03/10 10:52:55;;;;;;;29.77;18.08;;;;;;;9.97;88.21;99220.25;5187409;28;20257;-74
2024/03/10 10:55:27;;;;;;;35.05;18.25;;;;;;;10.23;88.58;99224.88;5182647;28;20025;-74
2024/03/10 10:57:58;;;;;;;31.50;18.30;;;;;;;10.10;88.37;99226.50;5178343;28;20081;-74
2024/03/10 11:00:28;;;;;;;30.65;18.20;;;;;;;10.40;87.53;99240.47;5182494;28;20030;-74
2024/03/10 11:03:22;;;;;;;31.40;17.42;;;;;;;10.49;86.29;99234.75;5180874;28;20036;-74
2024/03/10 11:06:02;;;;;;;29.83;16.38;;;;;;;10.78;85.43;99236.50;5179140;28;20053;-74
2024/03/10 11:08:34;;;;;;;28.13;17.67;;;;;;;11.12;84.94;99231.84;5180688;28;20030;-74
2024/03/10 11:11:05;;;;;;;30.00;17.63;;;;;;;10.88;85.34;99222.00;5186804;28;20900;-74
2024/03/10 11:13:43;;;;;;;29.35;17.63;;;;;;;11.26;85.86;99224.84;5186346;28;20431;-75
2024/03/10 11:16:22;;;;;;;31.13;17.75;;;;;;;11.06;85.13;99226.97;5182563;28;20037;-74
2024/03/10 11:19:13;;;;;;;27.95;16.95;;;;;;;11.06;86.06;99226.97;5181075;28;20146;-71
2024/03/10 11:21:45;;;;;;;31.15;16.95;;;;;;;10.81;85.21;99231.09;5182392;28;20079;-70
2024/03/10 11:24:17;;;;;;;29.25;17.05;;;;;;;10.54;86.65;99235.31;5186335;28;20045;-72
2024/03/10 11:27:08;;;;;;;30.25;17.83;;;;;;;10.65;86.71;99244.22;5183782;28;20048;-72
2024/03/10 11:29:41;;;;;;;30.23;16.92;;;;;;;10.88;86.34;99235.06;5186487;28;20447;-73
2024/03/10 11:32:34;;;;;;;29.33;16.75;;;;;;;10.63;86.68;99240.84;5175558;28;20107;-73
2024/03/10 11:35:08;;;;;;;32.75;17.17;;;;;;;10.89;85.53;99223.66;5182292;28;20147;-71
2024/03/10 11:37:38;;;;;;;29.38;17.20;;;;;;;10.61;86.33;99223.56;5187433;28;20059;-72
2024/03/10 11:40:15;;;;;;;32.67;18.05;;;;;;;10.73;86.60;99217.66;5184027;28;20033;-70
2024/03/10 11:42:46;;;;;;;29.73;17.67;;;;;;;10.85;87.23;99216.94;5188259;28;20116;-72
2024/03/10 11:45:16;;;;;;;31.02;18.02;;;;;;;10.80;86.29;99203.28;5187066;28;20370;-72
2024/03/10 11:47:46;;;;;;;30.58;18.13;;;;;;;10.73;87.39;99181.06;5190629;28;20056;-73
2024/03/10 11:50:18;;;;;;;30.02;17.35;;;;;;;10.90;87.17;99173.94;5188891;28;20046;-73
2024/03/10 11:52:49;;;;;;;30.58;18.02;;;;;;;10.69;86.97;99174.34;5186725;28;20100;-72
2024/03/10 11:55:20;;;;;;;33.85;17.85;;;;;;;10.73;86.29;99170.63;5188264;28;20112;-71
2024/03/10 11:57:54;;;;;;;31.38;17.70;;;;;;;10.81;86.16;99155.31;5184638;28;20037;-71
2024/03/10 12:00:25;;;;;;;29.52;16.98;;;;;;;10.92;86.12;99145.06;5187584;28;20524;-71
2024/03/10 12:02:56;;;;;;;32.85;19.10;;;;;;;10.90;87.20;99123.41;5185583;28;20034;-71
2024/03/10 12:05:28;;;;;;;31.27;17.33;;;;;;;10.83;86.91;99117.72;5191481;28;20073;-71